sensor_id;sensor_type;location;lat;lon;timestamp;P1;durP1;ratioP1;P2;durP2;ratioP2
49123;SDS011;48506;48.202;16.274;2023-07-02T00:01:45;6.35;;;3.90;;
49123;SDS011;48506;48.202;16.274;2023-07-02T00:04:12;3.95;;;2.88;;
49123;SDS011;48506;48.202;16.274;2023-07-02T00:06:44;5.80;;;2.90;;
49123;SDS011;48506;48.202;16.274;2023-07-02T00:09:11;9.52;;;3.55;;
49123;SDS011;48506;48.202;16.274;2023-07-02T00:11:38;6.72;;;2.85;;
49123;SDS011;48506;48.202;16.274;2023-07-02T00:14:05;3.58;;;2.72;;
49123;SDS011;48506;48.202;16.274;2023-07-02T00:16:32;3.85;;;2.72;;
49123;SDS011;48506;48.202;16.274;2023-07-02T00:18:59;4.65;;;2.75;;
49123;SDS011;48506;48.202;16.274;2023-07-02T00:21:28;4.50;;;2.70;;
49123;SDS011;48506;48.202;16.274;2023-07-02T00:23:54;5.30;;;2.75;;
49123;SDS011;48506;48.202;16.274;2023-07-02T00:26:23;3.15;;;2.60;;
49123;SDS011;48506;48.202;16.274;2023-07-02T00:28:51;5.35;;;2.92;;
49123;SDS011;48506;48.202;16.274;2023-07-02T00:31:18;3.75;;;2.92;;
49123;SDS011;48506;48.202;16.274;2023-07-02T00:33:44;3.38;;;3.00;;
49123;SDS011;48506;48.202;16.274;2023-07-02T00:36:10;4.22;;;2.38;;
49123;SDS011;48506;48.202;16.274;2023-07-02T00:38:44;3.13;;;2.83;;
49123;SDS011;48506;48.202;16.274;2023-07-02T00:41:12;4.15;;;2.70;;
49123;SDS011;48506;48.202;16.274;2023-07-02T00:43:38;4.72;;;2.35;;
49123;SDS011;48506;48.202;16.274;2023-07-02T00:46:14;3.50;;;2.40;;
49123;SDS011;48506;48.202;16.274;2023-07-02T00:48:48;4.25;;;2.88;;
49123;SDS011;48506;48.202;16.274;2023-07-02T00:51:19;5.55;;;3.15;;
49123;SDS011;48506;48.202;16.274;2023-07-02T00:53:47;4.15;;;2.50;;
49123;SDS011;48506;48.202;16.274;2023-07-02T00:56:14;4.78;;;3.90;;
49123;SDS011;48506;48.202;16.274;2023-07-02T00:58:42;4.38;;;2.60;;
49123;SDS011;48506;48.202;16.274;2023-07-02T01:01:23;5.57;;;3.25;;
49123;SDS011;48506;48.202;16.274;2023-07-02T01:06:25;5.85;;;2.80;;
49123;SDS011;48506;48.202;16.274;2023-07-02T01:08:54;4.50;;;3.10;;
49123;SDS011;48506;48.202;16.274;2023-07-02T01:11:22;4.72;;;3.40;;
49123;SDS011;48506;48.202;16.274;2023-07-02T01:13:55;6.78;;;3.55;;
49123;SDS011;48506;48.202;16.274;2023-07-02T01:16:28;4.68;;;3.03;;
49123;SDS011;48506;48.202;16.274;2023-07-02T01:18:58;4.07;;;3.33;;
49123;SDS011;48506;48.202;16.274;2023-07-02T01:21:29;3.45;;;3.03;;
49123;SDS011;48506;48.202;16.274;2023-07-02T01:23:58;3.35;;;2.53;;
49123;SDS011;48506;48.202;16.274;2023-07-02T01:26:31;5.93;;;3.53;;
49123;SDS011;48506;48.202;16.274;2023-07-02T01:29:18;3.75;;;3.28;;
49123;SDS011;48506;48.202;16.274;2023-07-02T01:31:45;4.80;;;3.13;;
49123;SDS011;48506;48.202;16.274;2023-07-02T01:34:13;3.63;;;3.03;;
49123;SDS011;48506;48.202;16.274;2023-07-02T01:36:40;3.38;;;3.08;;
49123;SDS011;48506;48.202;16.274;2023-07-02T01:39:06;4.55;;;3.15;;
49123;SDS011;48506;48.202;16.274;2023-07-02T01:41:37;5.10;;;3.65;;
49123;SDS011;48506;48.202;16.274;2023-07-02T01:44:14;6.38;;;3.30;;
49123;SDS011;48506;48.202;16.274;2023-07-02T01:46:40;5.47;;;2.72;;
49123;SDS011;48506;48.202;16.274;2023-07-02T01:49:06;4.03;;;2.80;;
49123;SDS011;48506;48.202;16.274;2023-07-02T01:51:32;4.05;;;3.05;;
49123;SDS011;48506;48.202;16.274;2023-07-02T01:53:59;9.43;;;3.90;;
49123;SDS011;48506;48.202;16.274;2023-07-02T01:56:26;5.75;;;3.10;;
49123;SDS011;48506;48.202;16.274;2023-07-02T01:58:52;4.82;;;2.95;;
49123;SDS011;48506;48.202;16.274;2023-07-02T02:01:18;4.97;;;3.53;;
49123;SDS011;48506;48.202;16.274;2023-07-02T02:03:44;6.80;;;3.35;;
49123;SDS011;48506;48.202;16.274;2023-07-02T02:06:10;5.78;;;3.20;;
49123;SDS011;48506;48.202;16.274;2023-07-02T02:08:36;4.70;;;2.97;;
49123;SDS011;48506;48.202;16.274;2023-07-02T02:11:02;5.47;;;3.15;;
49123;SDS011;48506;48.202;16.274;2023-07-02T02:13:28;5.93;;;3.65;;
49123;SDS011;48506;48.202;16.274;2023-07-02T02:15:54;6.47;;;4.05;;
49123;SDS011;48506;48.202;16.274;2023-07-02T02:18:20;5.40;;;3.40;;
49123;SDS011;48506;48.202;16.274;2023-07-02T02:20:46;7.00;;;3.70;;
49123;SDS011;48506;48.202;16.274;2023-07-02T02:23:12;3.80;;;3.30;;
49123;SDS011;48506;48.202;16.274;2023-07-02T02:25:38;4.78;;;3.10;;
49123;SDS011;48506;48.202;16.274;2023-07-02T02:28:03;5.45;;;4.00;;
49123;SDS011;48506;48.202;16.274;2023-07-02T02:30:29;7.05;;;3.55;;
49123;SDS011;48506;48.202;16.274;2023-07-02T02:32:55;6.03;;;3.70;;
49123;SDS011;48506;48.202;16.274;2023-07-02T02:35:21;4.10;;;3.15;;
49123;SDS011;48506;48.202;16.274;2023-07-02T02:37:47;4.65;;;3.70;;
49123;SDS011;48506;48.202;16.274;2023-07-02T02:40:13;8.10;;;4.55;;
49123;SDS011;48506;48.202;16.274;2023-07-02T02:42:40;4.93;;;3.15;;
49123;SDS011;48506;48.202;16.274;2023-07-02T02:45:09;4.78;;;2.92;;
49123;SDS011;48506;48.202;16.274;2023-07-02T02:47:35;6.10;;;3.42;;
49123;SDS011;48506;48.202;16.274;2023-07-02T02:50:00;5.43;;;3.35;;
49123;SDS011;48506;48.202;16.274;2023-07-02T02:52:26;6.68;;;3.78;;
49123;SDS011;48506;48.202;16.274;2023-07-02T02:54:52;4.18;;;2.90;;
49123;SDS011;48506;48.202;16.274;2023-07-02T02:57:18;3.70;;;3.33;;
49123;SDS011;48506;48.202;16.274;2023-07-02T02:59:44;4.68;;;3.10;;
49123;SDS011;48506;48.202;16.274;2023-07-02T03:02:10;5.60;;;4.13;;
49123;SDS011;48506;48.202;16.274;2023-07-02T03:04:35;5.18;;;3.00;;
49123;SDS011;48506;48.202;16.274;2023-07-02T03:07:05;5.18;;;3.50;;
49123;SDS011;48506;48.202;16.274;2023-07-02T03:09:33;4.32;;;3.40;;
49123;SDS011;48506;48.202;16.274;2023-07-02T03:11:59;6.25;;;3.33;;
49123;SDS011;48506;48.202;16.274;2023-07-02T03:14:25;3.83;;;2.63;;
49123;SDS011;48506;48.202;16.274;2023-07-02T03:16:51;5.75;;;3.30;;
49123;SDS011;48506;48.202;16.274;2023-07-02T03:19:16;5.75;;;3.60;;
49123;SDS011;48506;48.202;16.274;2023-07-02T03:21:43;4.28;;;3.47;;
49123;SDS011;48506;48.202;16.274;2023-07-02T03:24:09;5.15;;;3.00;;
49123;SDS011;48506;48.202;16.274;2023-07-02T03:26:42;8.00;;;3.40;;
49123;SDS011;48506;48.202;16.274;2023-07-02T03:31:34;5.43;;;3.35;;
49123;SDS011;48506;48.202;16.274;2023-07-02T03:34:03;3.95;;;3.08;;
49123;SDS011;48506;48.202;16.274;2023-07-02T03:36:34;3.60;;;2.85;;
49123;SDS011;48506;48.202;16.274;2023-07-02T03:39:01;8.57;;;3.28;;
49123;SDS011;48506;48.202;16.274;2023-07-02T03:41:28;6.07;;;3.53;;
49123;SDS011;48506;48.202;16.274;2023-07-02T03:43:55;4.68;;;3.28;;
49123;SDS011;48506;48.202;16.274;2023-07-02T03:46:20;4.32;;;2.88;;
49123;SDS011;48506;48.202;16.274;2023-07-02T03:48:46;5.60;;;3.47;;
49123;SDS011;48506;48.202;16.274;2023-07-02T03:51:12;5.25;;;3.70;;
49123;SDS011;48506;48.202;16.274;2023-07-02T03:53:40;9.55;;;3.53;;
49123;SDS011;48506;48.202;16.274;2023-07-02T03:56:06;5.63;;;3.10;;
49123;SDS011;48506;48.202;16.274;2023-07-02T03:58:32;5.43;;;3.70;;
49123;SDS011;48506;48.202;16.274;2023-07-02T04:00:59;5.28;;;3.38;;
49123;SDS011;48506;48.202;16.274;2023-07-02T04:03:25;4.38;;;3.22;;
49123;SDS011;48506;48.202;16.274;2023-07-02T04:05:51;6.88;;;3.33;;
49123;SDS011;48506;48.202;16.274;2023-07-02T04:08:17;6.53;;;3.00;;
49123;SDS011;48506;48.202;16.274;2023-07-02T04:10:46;4.13;;;2.58;;
49123;SDS011;48506;48.202;16.274;2023-07-02T04:13:12;4.10;;;3.35;;
49123;SDS011;48506;48.202;16.274;2023-07-02T04:15:38;5.45;;;3.28;;
49123;SDS011;48506;48.202;16.274;2023-07-02T04:18:04;4.82;;;3.20;;
49123;SDS011;48506;48.202;16.274;2023-07-02T04:20:30;5.13;;;3.38;;
49123;SDS011;48506;48.202;16.274;2023-07-02T04:22:55;6.55;;;3.05;;
49123;SDS011;48506;48.202;16.274;2023-07-02T04:25:21;6.00;;;4.15;;
49123;SDS011;48506;48.202;16.274;2023-07-02T04:27:49;6.63;;;3.28;;
49123;SDS011;48506;48.202;16.274;2023-07-02T04:30:15;3.45;;;2.97;;
49123;SDS011;48506;48.202;16.274;2023-07-02T04:32:41;3.92;;;3.15;;
49123;SDS011;48506;48.202;16.274;2023-07-02T04:35:07;4.80;;;3.00;;
49123;SDS011;48506;48.202;16.274;2023-07-02T04:37:35;5.45;;;2.92;;
49123;SDS011;48506;48.202;16.274;2023-07-02T04:40:01;4.47;;;3.30;;
49123;SDS011;48506;48.202;16.274;2023-07-02T04:42:29;4.07;;;2.80;;
49123;SDS011;48506;48.202;16.274;2023-07-02T04:44:57;4.18;;;3.25;;
49123;SDS011;48506;48.202;16.274;2023-07-02T04:47:28;6.43;;;3.30;;
49123;SDS011;48506;48.202;16.274;2023-07-02T04:49:55;5.45;;;3.17;;
49123;SDS011;48506;48.202;16.274;2023-07-02T04:52:21;5.30;;;2.70;;
49123;SDS011;48506;48.202;16.274;2023-07-02T04:54:47;4.15;;;2.70;;
49123;SDS011;48506;48.202;16.274;2023-07-02T04:57:13;5.75;;;3.13;;
49123;SDS011;48506;48.202;16.274;2023-07-02T04:59:41;6.55;;;3.00;;
49123;SDS011;48506;48.202;16.274;2023-07-02T05:02:07;6.38;;;2.40;;
49123;SDS011;48506;48.202;16.274;2023-07-02T05:04:33;4.53;;;2.63;;
49123;SDS011;48506;48.202;16.274;2023-07-02T05:07:00;4.63;;;2.63;;
49123;SDS011;48506;48.202;16.274;2023-07-02T05:09:26;3.25;;;2.78;;
49123;SDS011;48506;48.202;16.274;2023-07-02T05:11:52;3.20;;;2.28;;
49123;SDS011;48506;48.202;16.274;2023-07-02T05:14:18;4.78;;;2.83;;
49123;SDS011;48506;48.202;16.274;2023-07-02T05:16:44;3.67;;;2.55;;
49123;SDS011;48506;48.202;16.274;2023-07-02T05:19:10;3.90;;;3.10;;
49123;SDS011;48506;48.202;16.274;2023-07-02T05:21:36;3.00;;;2.65;;
49123;SDS011;48506;48.202;16.274;2023-07-02T05:24:01;4.20;;;3.80;;
49123;SDS011;48506;48.202;16.274;2023-07-02T05:26:27;4.78;;;2.65;;
49123;SDS011;48506;48.202;16.274;2023-07-02T05:28:53;3.28;;;2.55;;
49123;SDS011;48506;48.202;16.274;2023-07-02T05:31:19;3.65;;;2.85;;
49123;SDS011;48506;48.202;16.274;2023-07-02T05:33:45;6.72;;;3.42;;
49123;SDS011;48506;48.202;16.274;2023-07-02T05:36:11;4.63;;;2.88;;
49123;SDS011;48506;48.202;16.274;2023-07-02T05:38:37;3.85;;;2.50;;
49123;SDS011;48506;48.202;16.274;2023-07-02T05:41:03;5.55;;;2.97;;
49123;SDS011;48506;48.202;16.274;2023-07-02T05:43:29;3.70;;;2.67;;
49123;SDS011;48506;48.202;16.274;2023-07-02T05:45:57;4.82;;;3.25;;
49123;SDS011;48506;48.202;16.274;2023-07-02T05:48:26;7.35;;;3.20;;
49123;SDS011;48506;48.202;16.274;2023-07-02T05:50:52;4.07;;;2.83;;
49123;SDS011;48506;48.202;16.274;2023-07-02T05:53:18;5.05;;;2.97;;
49123;SDS011;48506;48.202;16.274;2023-07-02T05:55:44;4.65;;;3.00;;
49123;SDS011;48506;48.202;16.274;2023-07-02T05:58:10;6.20;;;3.53;;
49123;SDS011;48506;48.202;16.274;2023-07-02T06:00:36;4.53;;;3.40;;
49123;SDS011;48506;48.202;16.274;2023-07-02T06:03:02;3.90;;;3.20;;
49123;SDS011;48506;48.202;16.274;2023-07-02T06:05:28;4.47;;;2.72;;
49123;SDS011;48506;48.202;16.274;2023-07-02T06:07:54;6.32;;;4.10;;
49123;SDS011;48506;48.202;16.274;2023-07-02T06:10:20;4.85;;;3.50;;
49123;SDS011;48506;48.202;16.274;2023-07-02T06:12:46;3.67;;;2.83;;
49123;SDS011;48506;48.202;16.274;2023-07-02T06:15:12;4.60;;;3.15;;
49123;SDS011;48506;48.202;16.274;2023-07-02T06:17:38;3.50;;;3.08;;
49123;SDS011;48506;48.202;16.274;2023-07-02T06:20:04;4.20;;;3.80;;
49123;SDS011;48506;48.202;16.274;2023-07-02T06:22:31;4.00;;;3.10;;
49123;SDS011;48506;48.202;16.274;2023-07-02T06:24:57;4.18;;;3.45;;
49123;SDS011;48506;48.202;16.274;2023-07-02T06:27:22;4.80;;;2.88;;
49123;SDS011;48506;48.202;16.274;2023-07-02T06:29:48;3.33;;;2.80;;
49123;SDS011;48506;48.202;16.274;2023-07-02T06:32:16;4.88;;;3.67;;
49123;SDS011;48506;48.202;16.274;2023-07-02T06:34:42;3.40;;;3.10;;
49123;SDS011;48506;48.202;16.274;2023-07-02T06:37:08;4.53;;;3.40;;
49123;SDS011;48506;48.202;16.274;2023-07-02T06:39:35;4.97;;;3.15;;
49123;SDS011;48506;48.202;16.274;2023-07-02T06:42:01;4.78;;;3.45;;
49123;SDS011;48506;48.202;16.274;2023-07-02T06:44:27;3.30;;;3.00;;
49123;SDS011;48506;48.202;16.274;2023-07-02T06:46:53;4.63;;;2.72;;
49123;SDS011;48506;48.202;16.274;2023-07-02T06:49:19;4.15;;;3.00;;
49123;SDS011;48506;48.202;16.274;2023-07-02T06:51:46;3.90;;;3.38;;
49123;SDS011;48506;48.202;16.274;2023-07-02T06:54:12;4.25;;;3.30;;
49123;SDS011;48506;48.202;16.274;2023-07-02T06:56:38;3.42;;;3.08;;
49123;SDS011;48506;48.202;16.274;2023-07-02T06:59:04;5.20;;;3.42;;
49123;SDS011;48506;48.202;16.274;2023-07-02T07:01:30;3.17;;;2.88;;
49123;SDS011;48506;48.202;16.274;2023-07-02T07:03:56;4.85;;;3.08;;
49123;SDS011;48506;48.202;16.274;2023-07-02T07:06:22;4.25;;;2.50;;
49123;SDS011;48506;48.202;16.274;2023-07-02T07:08:47;3.85;;;3.30;;
49123;SDS011;48506;48.202;16.274;2023-07-02T07:11:13;3.35;;;2.88;;
49123;SDS011;48506;48.202;16.274;2023-07-02T07:13:39;4.97;;;2.75;;
49123;SDS011;48506;48.202;16.274;2023-07-02T07:16:05;5.65;;;2.95;;
49123;SDS011;48506;48.202;16.274;2023-07-02T07:18:31;4.40;;;3.33;;
49123;SDS011;48506;48.202;16.274;2023-07-02T07:20:57;2.97;;;2.22;;
49123;SDS011;48506;48.202;16.274;2023-07-02T07:23:23;2.75;;;2.53;;
49123;SDS011;48506;48.202;16.274;2023-07-02T07:25:49;2.95;;;2.55;;
49123;SDS011;48506;48.202;16.274;2023-07-02T07:28:15;6.55;;;3.00;;
49123;SDS011;48506;48.202;16.274;2023-07-02T07:30:42;4.60;;;2.85;;
49123;SDS011;48506;48.202;16.274;2023-07-02T07:33:09;3.97;;;2.65;;
49123;SDS011;48506;48.202;16.274;2023-07-02T07:35:36;3.92;;;3.50;;
49123;SDS011;48506;48.202;16.274;2023-07-02T07:38:02;2.85;;;2.55;;
49123;SDS011;48506;48.202;16.274;2023-07-02T07:40:28;3.47;;;3.17;;
49123;SDS011;48506;48.202;16.274;2023-07-02T07:42:54;3.28;;;2.80;;
49123;SDS011;48506;48.202;16.274;2023-07-02T07:45:20;3.63;;;3.22;;
49123;SDS011;48506;48.202;16.274;2023-07-02T07:47:46;4.90;;;2.67;;
49123;SDS011;48506;48.202;16.274;2023-07-02T07:50:12;3.88;;;2.92;;
49123;SDS011;48506;48.202;16.274;2023-07-02T07:52:38;4.13;;;3.08;;
49123;SDS011;48506;48.202;16.274;2023-07-02T07:55:06;5.57;;;3.20;;
49123;SDS011;48506;48.202;16.274;2023-07-02T07:57:36;3.88;;;3.28;;
49123;SDS011;48506;48.202;16.274;2023-07-02T08:00:03;4.07;;;3.30;;
49123;SDS011;48506;48.202;16.274;2023-07-02T08:02:32;4.07;;;3.63;;
49123;SDS011;48506;48.202;16.274;2023-07-02T08:04:58;5.70;;;3.60;;
49123;SDS011;48506;48.202;16.274;2023-07-02T08:07:24;4.60;;;3.17;;
49123;SDS011;48506;48.202;16.274;2023-07-02T08:09:49;3.55;;;3.20;;
49123;SDS011;48506;48.202;16.274;2023-07-02T08:12:15;5.05;;;3.40;;
49123;SDS011;48506;48.202;16.274;2023-07-02T08:14:41;3.90;;;3.10;;
49123;SDS011;48506;48.202;16.274;2023-07-02T08:17:08;3.88;;;2.88;;
49123;SDS011;48506;48.202;16.274;2023-07-02T08:19:34;3.33;;;2.67;;
49123;SDS011;48506;48.202;16.274;2023-07-02T08:22:00;4.35;;;3.60;;
49123;SDS011;48506;48.202;16.274;2023-07-02T08:24:26;3.15;;;2.75;;
49123;SDS011;48506;48.202;16.274;2023-07-02T08:26:53;3.60;;;2.85;;
49123;SDS011;48506;48.202;16.274;2023-07-02T08:29:19;3.97;;;2.70;;
49123;SDS011;48506;48.202;16.274;2023-07-02T08:31:45;5.05;;;3.25;;
49123;SDS011;48506;48.202;16.274;2023-07-02T08:34:11;3.35;;;2.78;;
49123;SDS011;48506;48.202;16.274;2023-07-02T08:36:37;3.10;;;2.80;;
49123;SDS011;48506;48.202;16.274;2023-07-02T08:39:03;4.03;;;3.25;;
49123;SDS011;48506;48.202;16.274;2023-07-02T08:41:30;3.30;;;3.00;;
49123;SDS011;48506;48.202;16.274;2023-07-02T08:43:57;5.75;;;3.10;;
49123;SDS011;48506;48.202;16.274;2023-07-02T08:46:24;4.43;;;2.85;;
49123;SDS011;48506;48.202;16.274;2023-07-02T08:48:50;3.78;;;3.40;;
49123;SDS011;48506;48.202;16.274;2023-07-02T08:51:16;3.15;;;2.65;;
49123;SDS011;48506;48.202;16.274;2023-07-02T08:53:43;4.18;;;2.75;;
49123;SDS011;48506;48.202;16.274;2023-07-02T08:56:09;8.18;;;3.10;;
49123;SDS011;48506;48.202;16.274;2023-07-02T08:58:35;2.85;;;2.58;;
49123;SDS011;48506;48.202;16.274;2023-07-02T09:01:07;4.80;;;2.75;;
49123;SDS011;48506;48.202;16.274;2023-07-02T09:03:38;3.70;;;3.10;;
49123;SDS011;48506;48.202;16.274;2023-07-02T09:06:06;3.47;;;2.83;;
49123;SDS011;48506;48.202;16.274;2023-07-02T09:08:34;2.80;;;2.60;;
49123;SDS011;48506;48.202;16.274;2023-07-02T09:11:14;4.18;;;3.13;;
49123;SDS011;48506;48.202;16.274;2023-07-02T09:13:45;3.78;;;2.60;;
49123;SDS011;48506;48.202;16.274;2023-07-02T09:16:31;3.00;;;2.08;;
49123;SDS011;48506;48.202;16.274;2023-07-02T09:19:02;3.00;;;2.75;;
49123;SDS011;48506;48.202;16.274;2023-07-02T09:21:44;2.92;;;2.70;;
49123;SDS011;48506;48.202;16.274;2023-07-02T09:24:12;2.72;;;2.47;;
49123;SDS011;48506;48.202;16.274;2023-07-02T09:26:45;3.42;;;2.65;;
49123;SDS011;48506;48.202;16.274;2023-07-02T09:31:58;3.37;;;2.97;;
49123;SDS011;48506;48.202;16.274;2023-07-02T09:34:35;3.15;;;2.83;;
49123;SDS011;48506;48.202;16.274;2023-07-02T09:37:03;3.13;;;2.70;;
49123;SDS011;48506;48.202;16.274;2023-07-02T09:39:31;3.67;;;2.90;;
49123;SDS011;48506;48.202;16.274;2023-07-02T09:41:59;4.30;;;2.47;;
49123;SDS011;48506;48.202;16.274;2023-07-02T09:44:30;3.67;;;2.72;;
49123;SDS011;48506;48.202;16.274;2023-07-02T09:47:07;3.40;;;2.40;;
49123;SDS011;48506;48.202;16.274;2023-07-02T09:49:35;3.00;;;2.60;;
49123;SDS011;48506;48.202;16.274;2023-07-02T09:52:07;5.35;;;3.00;;
49123;SDS011;48506;48.202;16.274;2023-07-02T09:54:35;3.60;;;2.83;;
49123;SDS011;48506;48.202;16.274;2023-07-02T09:57:02;2.78;;;2.50;;
49123;SDS011;48506;48.202;16.274;2023-07-02T09:59:28;3.05;;;2.70;;
49123;SDS011;48506;48.202;16.274;2023-07-02T10:01:55;3.30;;;2.80;;
49123;SDS011;48506;48.202;16.274;2023-07-02T10:04:23;2.83;;;2.13;;
49123;SDS011;48506;48.202;16.274;2023-07-02T10:09:20;3.30;;;2.30;;
49123;SDS011;48506;48.202;16.274;2023-07-02T10:11:59;3.15;;;2.15;;
49123;SDS011;48506;48.202;16.274;2023-07-02T10:14:25;7.30;;;2.65;;
49123;SDS011;48506;48.202;16.274;2023-07-02T10:16:55;2.35;;;2.10;;
49123;SDS011;48506;48.202;16.274;2023-07-02T10:19:21;3.17;;;2.25;;
49123;SDS011;48506;48.202;16.274;2023-07-02T10:22:00;3.00;;;2.42;;
49123;SDS011;48506;48.202;16.274;2023-07-02T10:24:28;2.42;;;2.15;;
49123;SDS011;48506;48.202;16.274;2023-07-02T10:26:57;5.20;;;2.70;;
49123;SDS011;48506;48.202;16.274;2023-07-02T10:29:25;3.85;;;2.47;;
49123;SDS011;48506;48.202;16.274;2023-07-02T10:31:52;2.83;;;2.50;;
49123;SDS011;48506;48.202;16.274;2023-07-02T10:34:32;2.65;;;2.35;;
49123;SDS011;48506;48.202;16.274;2023-07-02T10:37:03;3.78;;;2.58;;
49123;SDS011;48506;48.202;16.274;2023-07-02T10:42:05;3.33;;;2.72;;
49123;SDS011;48506;48.202;16.274;2023-07-02T10:44:32;3.40;;;2.60;;
49123;SDS011;48506;48.202;16.274;2023-07-02T10:46:59;3.22;;;2.63;;
49123;SDS011;48506;48.202;16.274;2023-07-02T10:49:31;3.03;;;2.40;;
49123;SDS011;48506;48.202;16.274;2023-07-02T10:52:01;2.92;;;2.63;;
49123;SDS011;48506;48.202;16.274;2023-07-02T10:54:45;3.45;;;2.28;;
49123;SDS011;48506;48.202;16.274;2023-07-02T10:57:15;3.65;;;2.13;;
49123;SDS011;48506;48.202;16.274;2023-07-02T10:59:47;2.55;;;2.20;;
49123;SDS011;48506;48.202;16.274;2023-07-02T11:02:15;2.63;;;2.42;;
49123;SDS011;48506;48.202;16.274;2023-07-02T11:04:41;2.63;;;2.30;;
49123;SDS011;48506;48.202;16.274;2023-07-02T11:07:09;7.13;;;2.88;;
49123;SDS011;48506;48.202;16.274;2023-07-02T11:09:36;3.47;;;3.13;;
49123;SDS011;48506;48.202;16.274;2023-07-02T11:12:03;3.95;;;2.60;;
49123;SDS011;48506;48.202;16.274;2023-07-02T11:14:32;4.00;;;2.78;;
49123;SDS011;48506;48.202;16.274;2023-07-02T11:17:01;3.67;;;2.70;;
49123;SDS011;48506;48.202;16.274;2023-07-02T11:19:30;2.90;;;2.58;;
49123;SDS011;48506;48.202;16.274;2023-07-02T11:21:57;4.07;;;2.72;;
49123;SDS011;48506;48.202;16.274;2023-07-02T11:24:31;4.53;;;2.28;;
49123;SDS011;48506;48.202;16.274;2023-07-02T11:26:58;3.97;;;2.85;;
49123;SDS011;48506;48.202;16.274;2023-07-02T11:29:27;2.92;;;2.55;;
49123;SDS011;48506;48.202;16.274;2023-07-02T11:32:08;2.97;;;2.35;;
49123;SDS011;48506;48.202;16.274;2023-07-02T11:34:35;4.32;;;2.70;;
49123;SDS011;48506;48.202;16.274;2023-07-02T11:37:02;3.00;;;2.17;;
49123;SDS011;48506;48.202;16.274;2023-07-02T11:39:30;4.32;;;2.50;;
49123;SDS011;48506;48.202;16.274;2023-07-02T11:41:56;3.08;;;2.40;;
49123;SDS011;48506;48.202;16.274;2023-07-02T11:44:23;6.20;;;2.38;;
49123;SDS011;48506;48.202;16.274;2023-07-02T11:46:49;2.58;;;2.30;;
49123;SDS011;48506;48.202;16.274;2023-07-02T11:49:15;4.28;;;2.60;;
49123;SDS011;48506;48.202;16.274;2023-07-02T11:51:42;3.10;;;2.78;;
49123;SDS011;48506;48.202;16.274;2023-07-02T11:54:14;3.22;;;2.20;;
49123;SDS011;48506;48.202;16.274;2023-07-02T11:56:41;4.90;;;2.45;;
49123;SDS011;48506;48.202;16.274;2023-07-02T11:59:08;4.40;;;2.60;;
49123;SDS011;48506;48.202;16.274;2023-07-02T12:01:34;5.43;;;2.70;;
49123;SDS011;48506;48.202;16.274;2023-07-02T12:04:00;3.28;;;2.78;;
49123;SDS011;48506;48.202;16.274;2023-07-02T12:06:26;3.10;;;2.28;;
49123;SDS011;48506;48.202;16.274;2023-07-02T12:08:53;3.20;;;2.20;;
49123;SDS011;48506;48.202;16.274;2023-07-02T12:11:19;3.80;;;2.50;;
49123;SDS011;48506;48.202;16.274;2023-07-02T12:13:44;2.22;;;1.90;;
49123;SDS011;48506;48.202;16.274;2023-07-02T12:16:10;6.60;;;3.25;;
49123;SDS011;48506;48.202;16.274;2023-07-02T12:18:36;4.25;;;2.45;;
49123;SDS011;48506;48.202;16.274;2023-07-02T12:21:02;4.00;;;2.22;;
49123;SDS011;48506;48.202;16.274;2023-07-02T12:23:28;4.25;;;2.20;;
49123;SDS011;48506;48.202;16.274;2023-07-02T12:25:54;2.67;;;1.85;;
49123;SDS011;48506;48.202;16.274;2023-07-02T12:28:21;3.55;;;2.40;;
49123;SDS011;48506;48.202;16.274;2023-07-02T12:30:47;2.90;;;2.30;;
49123;SDS011;48506;48.202;16.274;2023-07-02T12:33:13;2.53;;;2.30;;
49123;SDS011;48506;48.202;16.274;2023-07-02T12:35:39;2.78;;;2.17;;
49123;SDS011;48506;48.202;16.274;2023-07-02T12:38:04;2.13;;;1.90;;
49123;SDS011;48506;48.202;16.274;2023-07-02T12:40:33;5.55;;;2.63;;
49123;SDS011;48506;48.202;16.274;2023-07-02T12:43:00;4.10;;;2.30;;
49123;SDS011;48506;48.202;16.274;2023-07-02T12:45:26;5.25;;;2.20;;
49123;SDS011;48506;48.202;16.274;2023-07-02T12:47:52;2.95;;;1.83;;
49123;SDS011;48506;48.202;16.274;2023-07-02T12:50:18;7.55;;;2.53;;
49123;SDS011;48506;48.202;16.274;2023-07-02T12:52:44;2.50;;;1.80;;
49123;SDS011;48506;48.202;16.274;2023-07-02T12:55:10;6.05;;;2.17;;
49123;SDS011;48506;48.202;16.274;2023-07-02T12:57:36;11.25;;;2.75;;
49123;SDS011;48506;48.202;16.274;2023-07-02T13:00:02;2.45;;;2.00;;
49123;SDS011;48506;48.202;16.274;2023-07-02T13:02:31;2.50;;;1.80;;
49123;SDS011;48506;48.202;16.274;2023-07-02T13:04:57;2.42;;;1.95;;
49123;SDS011;48506;48.202;16.274;2023-07-02T13:07:24;3.78;;;2.30;;
49123;SDS011;48506;48.202;16.274;2023-07-02T13:09:51;4.40;;;2.72;;
49123;SDS011;48506;48.202;16.274;2023-07-02T13:12:17;3.17;;;2.03;;
49123;SDS011;48506;48.202;16.274;2023-07-02T13:14:43;7.82;;;2.10;;
49123;SDS011;48506;48.202;16.274;2023-07-02T13:17:10;5.32;;;2.10;;
49123;SDS011;48506;48.202;16.274;2023-07-02T13:19:37;2.63;;;2.40;;
49123;SDS011;48506;48.202;16.274;2023-07-02T13:22:03;2.50;;;1.88;;
49123;SDS011;48506;48.202;16.274;2023-07-02T13:24:33;3.15;;;2.03;;
49123;SDS011;48506;48.202;16.274;2023-07-02T13:27:04;3.50;;;1.85;;
49123;SDS011;48506;48.202;16.274;2023-07-02T13:29:35;2.95;;;2.22;;
49123;SDS011;48506;48.202;16.274;2023-07-02T13:32:01;2.30;;;1.85;;
49123;SDS011;48506;48.202;16.274;2023-07-02T13:34:27;1.88;;;1.60;;
49123;SDS011;48506;48.202;16.274;2023-07-02T13:36:54;4.20;;;1.70;;
49123;SDS011;48506;48.202;16.274;2023-07-02T13:39:20;3.53;;;2.05;;
49123;SDS011;48506;48.202;16.274;2023-07-02T13:41:47;2.28;;;1.50;;
49123;SDS011;48506;48.202;16.274;2023-07-02T13:44:14;1.65;;;1.55;;
49123;SDS011;48506;48.202;16.274;2023-07-02T13:46:42;1.58;;;1.30;;
49123;SDS011;48506;48.202;16.274;2023-07-02T13:49:10;2.20;;;1.60;;
49123;SDS011;48506;48.202;16.274;2023-07-02T13:51:36;1.92;;;1.25;;
49123;SDS011;48506;48.202;16.274;2023-07-02T13:54:03;1.48;;;1.33;;
49123;SDS011;48506;48.202;16.274;2023-07-02T13:56:29;2.95;;;1.77;;
49123;SDS011;48506;48.202;16.274;2023-07-02T14:01:24;1.95;;;1.48;;
49123;SDS011;48506;48.202;16.274;2023-07-02T14:06:19;3.42;;;1.48;;
49123;SDS011;48506;48.202;16.274;2023-07-02T14:08:46;4.45;;;1.90;;
49123;SDS011;48506;48.202;16.274;2023-07-02T14:11:13;1.40;;;1.30;;
49123;SDS011;48506;48.202;16.274;2023-07-02T14:13:39;4.20;;;1.45;;
49123;SDS011;48506;48.202;16.274;2023-07-02T14:16:06;2.80;;;1.73;;
49123;SDS011;48506;48.202;16.274;2023-07-02T14:18:32;2.72;;;1.60;;
49123;SDS011;48506;48.202;16.274;2023-07-02T14:20:58;4.40;;;1.80;;
49123;SDS011;48506;48.202;16.274;2023-07-02T14:23:24;1.67;;;1.50;;
49123;SDS011;48506;48.202;16.274;2023-07-02T14:25:50;2.30;;;1.38;;
49123;SDS011;48506;48.202;16.274;2023-07-02T14:28:16;2.50;;;1.63;;
49123;SDS011;48506;48.202;16.274;2023-07-02T14:30:42;5.03;;;2.55;;
49123;SDS011;48506;48.202;16.274;2023-07-02T14:33:09;2.10;;;1.70;;
49123;SDS011;48506;48.202;16.274;2023-07-02T14:35:36;4.40;;;2.10;;
49123;SDS011;48506;48.202;16.274;2023-07-02T14:38:02;5.10;;;2.35;;
49123;SDS011;48506;48.202;16.274;2023-07-02T14:40:28;3.63;;;1.80;;
49123;SDS011;48506;48.202;16.274;2023-07-02T14:42:57;3.22;;;2.10;;
49123;SDS011;48506;48.202;16.274;2023-07-02T14:45:24;4.10;;;1.67;;
49123;SDS011;48506;48.202;16.274;2023-07-02T14:47:49;1.58;;;1.33;;
49123;SDS011;48506;48.202;16.274;2023-07-02T14:50:15;4.03;;;1.73;;
49123;SDS011;48506;48.202;16.274;2023-07-02T14:52:41;2.85;;;1.80;;